sensor_id;sensor_type;location;lat;lon;timestamp;P1;durP1;ratioP1;P2;durP2;ratioP2
8036;SDS011;4061;51.360;7.340;2023-05-21T00:02:14;16.10;;;7.63;;
8036;SDS011;4061;51.360;7.340;2023-05-21T00:04:42;13.75;;;7.22;;
8036;SDS011;4061;51.360;7.340;2023-05-21T00:07:09;15.40;;;7.45;;
8036;SDS011;4061;51.360;7.340;2023-05-21T00:09:36;11.23;;;6.85;;
8036;SDS011;4061;51.360;7.340;2023-05-21T00:12:04;13.50;;;7.93;;
8036;SDS011;4061;51.360;7.340;2023-05-21T00:14:31;12.20;;;7.20;;
8036;SDS011;4061;51.360;7.340;2023-05-21T00:16:58;11.65;;;6.85;;
8036;SDS011;4061;51.360;7.340;2023-05-21T00:19:27;11.15;;;6.75;;
8036;SDS011;4061;51.360;7.340;2023-05-21T00:21:54;13.15;;;6.60;;
8036;SDS011;4061;51.360;7.340;2023-05-21T00:24:21;10.00;;;6.50;;
8036;SDS011;4061;51.360;7.340;2023-05-21T00:26:48;13.40;;;7.35;;
8036;SDS011;4061;51.360;7.340;2023-05-21T00:29:15;15.00;;;7.82;;
8036;SDS011;4061;51.360;7.340;2023-05-21T00:31:42;13.35;;;7.93;;
8036;SDS011;4061;51.360;7.340;2023-05-21T00:34:11;12.50;;;7.93;;
8036;SDS011;4061;51.360;7.340;2023-05-21T00:36:40;13.40;;;7.47;;
8036;SDS011;4061;51.360;7.340;2023-05-21T00:39:09;15.20;;;8.07;;
8036;SDS011;4061;51.360;7.340;2023-05-21T00:41:36;16.10;;;7.43;;
8036;SDS011;4061;51.360;7.340;2023-05-21T00:44:04;12.75;;;7.53;;
8036;SDS011;4061;51.360;7.340;2023-05-21T00:46:32;10.90;;;7.68;;
8036;SDS011;4061;51.360;7.340;2023-05-21T00:48:59;11.68;;;7.80;;
8036;SDS011;4061;51.360;7.340;2023-05-21T00:51:26;16.13;;;7.45;;
8036;SDS011;4061;51.360;7.340;2023-05-21T00:53:55;12.32;;;7.82;;
8036;SDS011;4061;51.360;7.340;2023-05-21T00:56:23;13.27;;;7.13;;
8036;SDS011;4061;51.360;7.340;2023-05-21T00:58:52;11.40;;;7.60;;
8036;SDS011;4061;51.360;7.340;2023-05-21T01:01:19;16.25;;;7.45;;
8036;SDS011;4061;51.360;7.340;2023-05-21T01:03:49;12.27;;;8.02;;
8036;SDS011;4061;51.360;7.340;2023-05-21T01:06:18;11.25;;;7.60;;
8036;SDS011;4061;51.360;7.340;2023-05-21T01:08:45;13.98;;;7.40;;
8036;SDS011;4061;51.360;7.340;2023-05-21T01:11:16;13.18;;;7.20;;
8036;SDS011;4061;51.360;7.340;2023-05-21T01:13:45;10.75;;;6.93;;
8036;SDS011;4061;51.360;7.340;2023-05-21T01:16:13;12.95;;;7.32;;
8036;SDS011;4061;51.360;7.340;2023-05-21T01:18:41;13.68;;;7.63;;
8036;SDS011;4061;51.360;7.340;2023-05-21T01:21:09;14.07;;;8.13;;
8036;SDS011;4061;51.360;7.340;2023-05-21T01:23:37;13.52;;;7.63;;
8036;SDS011;4061;51.360;7.340;2023-05-21T01:26:05;14.90;;;7.57;;
8036;SDS011;4061;51.360;7.340;2023-05-21T01:28:32;18.38;;;7.60;;
8036;SDS011;4061;51.360;7.340;2023-05-21T01:30:59;11.55;;;6.88;;
8036;SDS011;4061;51.360;7.340;2023-05-21T01:33:31;10.88;;;7.20;;
8036;SDS011;4061;51.360;7.340;2023-05-21T01:36:01;16.33;;;8.30;;
8036;SDS011;4061;51.360;7.340;2023-05-21T01:38:33;11.65;;;7.97;;
8036;SDS011;4061;51.360;7.340;2023-05-21T01:41:06;11.80;;;7.20;;
8036;SDS011;4061;51.360;7.340;2023-05-21T01:43:37;10.68;;;7.22;;
8036;SDS011;4061;51.360;7.340;2023-05-21T01:46:04;13.50;;;7.35;;
8036;SDS011;4061;51.360;7.340;2023-05-21T01:48:33;11.57;;;6.70;;
8036;SDS011;4061;51.360;7.340;2023-05-21T01:51:01;13.27;;;7.05;;
8036;SDS011;4061;51.360;7.340;2023-05-21T01:53:29;11.68;;;6.97;;
8036;SDS011;4061;51.360;7.340;2023-05-21T01:55:56;11.45;;;7.15;;
8036;SDS011;4061;51.360;7.340;2023-05-21T01:58:26;19.10;;;7.50;;
8036;SDS011;4061;51.360;7.340;2023-05-21T02:00:53;12.95;;;7.35;;
8036;SDS011;4061;51.360;7.340;2023-05-21T02:03:21;10.05;;;6.72;;
8036;SDS011;4061;51.360;7.340;2023-05-21T02:05:48;12.45;;;7.40;;
8036;SDS011;4061;51.360;7.340;2023-05-21T02:08:17;11.80;;;7.00;;
8036;SDS011;4061;51.360;7.340;2023-05-21T02:10:44;11.68;;;7.05;;
8036;SDS011;4061;51.360;7.340;2023-05-21T02:13:11;9.65;;;6.40;;
8036;SDS011;4061;51.360;7.340;2023-05-21T02:15:40;8.15;;;6.00;;
8036;SDS011;4061;51.360;7.340;2023-05-21T02:18:08;11.15;;;6.70;;
8036;SDS011;4061;51.360;7.340;2023-05-21T02:20:36;11.63;;;6.40;;
8036;SDS011;4061;51.360;7.340;2023-05-21T02:23:03;13.52;;;6.18;;
8036;SDS011;4061;51.360;7.340;2023-05-21T02:25:30;11.65;;;6.38;;
8036;SDS011;4061;51.360;7.340;2023-05-21T02:27:57;13.48;;;6.75;;
8036;SDS011;4061;51.360;7.340;2023-05-21T02:30:25;16.52;;;6.63;;
8036;SDS011;4061;51.360;7.340;2023-05-21T02:32:53;10.75;;;7.03;;
8036;SDS011;4061;51.360;7.340;2023-05-21T02:35:22;13.88;;;6.45;;
8036;SDS011;4061;51.360;7.340;2023-05-21T02:37:50;10.93;;;6.50;;
8036;SDS011;4061;51.360;7.340;2023-05-21T02:40:17;12.13;;;6.65;;
8036;SDS011;4061;51.360;7.340;2023-05-21T02:42:44;11.15;;;6.28;;
8036;SDS011;4061;51.360;7.340;2023-05-21T02:45:11;11.32;;;6.53;;
8036;SDS011;4061;51.360;7.340;2023-05-21T02:47:38;14.23;;;7.03;;
8036;SDS011;4061;51.360;7.340;2023-05-21T02:50:07;12.13;;;7.13;;
8036;SDS011;4061;51.360;7.340;2023-05-21T02:52:35;10.95;;;6.65;;
8036;SDS011;4061;51.360;7.340;2023-05-21T02:55:02;8.85;;;6.75;;
8036;SDS011;4061;51.360;7.340;2023-05-21T02:57:29;11.40;;;6.90;;
8036;SDS011;4061;51.360;7.340;2023-05-21T02:59:56;10.95;;;6.03;;
8036;SDS011;4061;51.360;7.340;2023-05-21T03:02:23;13.00;;;6.65;;
8036;SDS011;4061;51.360;7.340;2023-05-21T03:04:50;11.68;;;7.45;;
8036;SDS011;4061;51.360;7.340;2023-05-21T03:07:19;11.07;;;6.93;;
8036;SDS011;4061;51.360;7.340;2023-05-21T03:09:48;13.60;;;6.80;;
8036;SDS011;4061;51.360;7.340;2023-05-21T03:12:15;11.32;;;7.03;;
8036;SDS011;4061;51.360;7.340;2023-05-21T03:14:42;9.30;;;6.75;;
8036;SDS011;4061;51.360;7.340;2023-05-21T03:17:10;8.63;;;6.30;;
8036;SDS011;4061;51.360;7.340;2023-05-21T03:19:39;12.18;;;6.18;;
8036;SDS011;4061;51.360;7.340;2023-05-21T03:22:06;9.48;;;6.60;;
8036;SDS011;4061;51.360;7.340;2023-05-21T03:24:35;8.25;;;6.60;;
8036;SDS011;4061;51.360;7.340;2023-05-21T03:27:02;14.10;;;7.00;;
8036;SDS011;4061;51.360;7.340;2023-05-21T03:29:30;10.88;;;7.03;;
8036;SDS011;4061;51.360;7.340;2023-05-21T03:31:57;11.57;;;6.15;;
8036;SDS011;4061;51.360;7.340;2023-05-21T03:34:25;11.43;;;6.10;;
8036;SDS011;4061;51.360;7.340;2023-05-21T03:36:52;11.82;;;6.25;;
8036;SDS011;4061;51.360;7.340;2023-05-21T03:39:19;13.38;;;7.20;;
8036;SDS011;4061;51.360;7.340;2023-05-21T03:41:47;9.88;;;6.32;;
8036;SDS011;4061;51.360;7.340;2023-05-21T03:44:15;11.93;;;7.13;;
8036;SDS011;4061;51.360;7.340;2023-05-21T03:46:42;9.43;;;6.05;;
8036;SDS011;4061;51.360;7.340;2023-05-21T03:49:10;10.55;;;6.32;;
8036;SDS011;4061;51.360;7.340;2023-05-21T03:51:37;13.95;;;7.22;;
8036;SDS011;4061;51.360;7.340;2023-05-21T03:54:04;10.38;;;6.50;;
8036;SDS011;4061;51.360;7.340;2023-05-21T03:56:31;9.43;;;6.03;;
8036;SDS011;4061;51.360;7.340;2023-05-21T03:59:00;12.32;;;6.57;;
8036;SDS011;4061;51.360;7.340;2023-05-21T04:01:27;10.00;;;6.40;;
8036;SDS011;4061;51.360;7.340;2023-05-21T04:03:54;15.18;;;6.65;;
8036;SDS011;4061;51.360;7.340;2023-05-21T04:06:21;12.55;;;7.35;;
8036;SDS011;4061;51.360;7.340;2023-05-21T04:08:49;11.38;;;5.82;;
8036;SDS011;4061;51.360;7.340;2023-05-21T04:11:16;9.55;;;6.05;;
8036;SDS011;4061;51.360;7.340;2023-05-21T04:13:43;9.57;;;5.82;;
8036;SDS011;4061;51.360;7.340;2023-05-21T04:16:13;10.68;;;6.32;;
8036;SDS011;4061;51.360;7.340;2023-05-21T04:18:43;9.63;;;6.03;;
8036;SDS011;4061;51.360;7.340;2023-05-21T04:21:10;9.80;;;6.38;;
8036;SDS011;4061;51.360;7.340;2023-05-21T04:23:37;10.07;;;6.70;;
8036;SDS011;4061;51.360;7.340;2023-05-21T04:26:04;10.82;;;6.35;;
8036;SDS011;4061;51.360;7.340;2023-05-21T04:28:31;12.95;;;6.68;;
8036;SDS011;4061;51.360;7.340;2023-05-21T04:30:59;8.75;;;6.28;;
8036;SDS011;4061;51.360;7.340;2023-05-21T04:33:27;9.57;;;6.25;;
8036;SDS011;4061;51.360;7.340;2023-05-21T04:35:55;11.07;;;6.00;;
8036;SDS011;4061;51.360;7.340;2023-05-21T04:38:22;10.65;;;6.05;;
8036;SDS011;4061;51.360;7.340;2023-05-21T04:40:50;9.98;;;6.10;;
8036;SDS011;4061;51.360;7.340;2023-05-21T04:43:17;9.38;;;6.45;;
8036;SDS011;4061;51.360;7.340;2023-05-21T04:45:50;12.05;;;7.15;;
8036;SDS011;4061;51.360;7.340;2023-05-21T04:48:18;8.93;;;5.90;;
8036;SDS011;4061;51.360;7.340;2023-05-21T04:50:48;11.98;;;6.53;;
8036;SDS011;4061;51.360;7.340;2023-05-21T04:53:16;9.57;;;6.53;;
8036;SDS011;4061;51.360;7.340;2023-05-21T04:55:43;9.43;;;6.45;;
8036;SDS011;4061;51.360;7.340;2023-05-21T04:58:11;7.15;;;5.88;;
8036;SDS011;4061;51.360;7.340;2023-05-21T05:00:38;9.82;;;6.55;;
8036;SDS011;4061;51.360;7.340;2023-05-21T05:03:06;9.10;;;5.38;;
8036;SDS011;4061;51.360;7.340;2023-05-21T05:05:34;9.57;;;5.78;;
8036;SDS011;4061;51.360;7.340;2023-05-21T05:08:02;8.57;;;6.68;;
8036;SDS011;4061;51.360;7.340;2023-05-21T05:10:29;11.50;;;6.07;;
8036;SDS011;4061;51.360;7.340;2023-05-21T05:12:56;9.20;;;5.72;;
8036;SDS011;4061;51.360;7.340;2023-05-21T05:15:24;9.45;;;6.47;;
8036;SDS011;4061;51.360;7.340;2023-05-21T05:17:51;9.57;;;5.90;;
8036;SDS011;4061;51.360;7.340;2023-05-21T05:20:18;11.27;;;6.05;;
8036;SDS011;4061;51.360;7.340;2023-05-21T05:22:45;10.05;;;6.18;;
8036;SDS011;4061;51.360;7.340;2023-05-21T05:25:14;8.02;;;6.00;;
8036;SDS011;4061;51.360;7.340;2023-05-21T05:27:41;12.43;;;5.70;;
8036;SDS011;4061;51.360;7.340;2023-05-21T05:30:08;7.35;;;6.20;;
8036;SDS011;4061;51.360;7.340;2023-05-21T05:32:35;9.55;;;6.47;;
8036;SDS011;4061;51.360;7.340;2023-05-21T05:35:03;8.50;;;5.78;;
8036;SDS011;4061;51.360;7.340;2023-05-21T05:37:30;8.55;;;5.63;;
8036;SDS011;4061;51.360;7.340;2023-05-21T05:39:58;10.02;;;6.25;;
8036;SDS011;4061;51.360;7.340;2023-05-21T05:42:26;8.73;;;5.88;;
8036;SDS011;4061;51.360;7.340;2023-05-21T05:44:53;8.65;;;5.78;;
8036;SDS011;4061;51.360;7.340;2023-05-21T05:47:21;8.15;;;5.90;;
8036;SDS011;4061;51.360;7.340;2023-05-21T05:49:48;10.45;;;5.70;;
8036;SDS011;4061;51.360;7.340;2023-05-21T05:52:15;9.70;;;5.65;;
8036;SDS011;4061;51.360;7.340;2023-05-21T05:54:42;8.38;;;6.05;;
8036;SDS011;4061;51.360;7.340;2023-05-21T05:57:09;7.97;;;5.15;;
8036;SDS011;4061;51.360;7.340;2023-05-21T05:59:38;9.35;;;6.40;;
8036;SDS011;4061;51.360;7.340;2023-05-21T06:02:05;8.13;;;5.70;;
8036;SDS011;4061;51.360;7.340;2023-05-21T06:04:32;10.05;;;6.05;;
8036;SDS011;4061;51.360;7.340;2023-05-21T06:06:59;8.50;;;5.65;;
8036;SDS011;4061;51.360;7.340;2023-05-21T06:09:27;13.75;;;5.35;;
8036;SDS011;4061;51.360;7.340;2023-05-21T06:11:54;7.82;;;5.93;;
8036;SDS011;4061;51.360;7.340;2023-05-21T06:14:21;7.78;;;5.80;;
8036;SDS011;4061;51.360;7.340;2023-05-21T06:16:49;6.70;;;5.43;;
8036;SDS011;4061;51.360;7.340;2023-05-21T06:19:17;7.88;;;5.65;;
8036;SDS011;4061;51.360;7.340;2023-05-21T06:21:44;7.30;;;5.30;;
8036;SDS011;4061;51.360;7.340;2023-05-21T06:24:11;10.15;;;6.53;;
8036;SDS011;4061;51.360;7.340;2023-05-21T06:26:38;7.43;;;5.03;;
8036;SDS011;4061;51.360;7.340;2023-05-21T06:29:05;6.20;;;5.07;;
8036;SDS011;4061;51.360;7.340;2023-05-21T06:31:33;5.80;;;5.10;;
8036;SDS011;4061;51.360;7.340;2023-05-21T06:34:01;11.18;;;5.38;;
8036;SDS011;4061;51.360;7.340;2023-05-21T06:36:29;9.15;;;5.57;;
8036;SDS011;4061;51.360;7.340;2023-05-21T06:38:56;9.75;;;6.00;;
8036;SDS011;4061;51.360;7.340;2023-05-21T06:41:23;6.70;;;5.43;;
8036;SDS011;4061;51.360;7.340;2023-05-21T06:43:50;8.35;;;5.80;;
8036;SDS011;4061;51.360;7.340;2023-05-21T06:46:17;7.35;;;6.10;;
8036;SDS011;4061;51.360;7.340;2023-05-21T06:48:45;6.22;;;5.50;;
8036;SDS011;4061;51.360;7.340;2023-05-21T06:51:13;10.68;;;6.35;;
8036;SDS011;4061;51.360;7.340;2023-05-21T06:53:40;7.30;;;5.68;;
8036;SDS011;4061;51.360;7.340;2023-05-21T06:56:07;7.75;;;5.72;;
8036;SDS011;4061;51.360;7.340;2023-05-21T06:58:35;10.18;;;5.80;;
8036;SDS011;4061;51.360;7.340;2023-05-21T07:01:02;6.82;;;5.30;;
8036;SDS011;4061;51.360;7.340;2023-05-21T07:03:29;12.25;;;6.05;;
8036;SDS011;4061;51.360;7.340;2023-05-21T07:05:56;6.90;;;5.63;;
8036;SDS011;4061;51.360;7.340;2023-05-21T07:08:25;7.20;;;5.70;;
8036;SDS011;4061;51.360;7.340;2023-05-21T07:10:52;15.38;;;6.03;;
8036;SDS011;4061;51.360;7.340;2023-05-21T07:13:20;9.63;;;6.22;;
8036;SDS011;4061;51.360;7.340;2023-05-21T07:15:47;8.90;;;6.18;;
8036;SDS011;4061;51.360;7.340;2023-05-21T07:18:14;7.78;;;5.68;;
8036;SDS011;4061;51.360;7.340;2023-05-21T07:20:41;8.73;;;6.00;;
8036;SDS011;4061;51.360;7.340;2023-05-21T07:23:09;10.07;;;6.22;;
8036;SDS011;4061;51.360;7.340;2023-05-21T07:25:37;6.65;;;5.55;;
8036;SDS011;4061;51.360;7.340;2023-05-21T07:28:04;10.88;;;6.03;;
8036;SDS011;4061;51.360;7.340;2023-05-21T07:30:31;10.73;;;6.32;;
8036;SDS011;4061;51.360;7.340;2023-05-21T07:32:58;8.45;;;5.80;;
8036;SDS011;4061;51.360;7.340;2023-05-21T07:35:26;7.97;;;6.10;;
8036;SDS011;4061;51.360;7.340;2023-05-21T07:37:53;10.90;;;6.25;;
8036;SDS011;4061;51.360;7.340;2023-05-21T07:40:20;10.27;;;6.45;;
8036;SDS011;4061;51.360;7.340;2023-05-21T07:42:48;11.23;;;5.65;;
8036;SDS011;4061;51.360;7.340;2023-05-21T07:45:16;11.35;;;6.15;;
8036;SDS011;4061;51.360;7.340;2023-05-21T07:47:43;11.70;;;6.13;;
8036;SDS011;4061;51.360;7.340;2023-05-21T07:50:11;10.73;;;6.43;;
8036;SDS011;4061;51.360;7.340;2023-05-21T07:52:38;9.57;;;5.88;;
8036;SDS011;4061;51.360;7.340;2023-05-21T07:55:05;9.45;;;6.38;;
8036;SDS011;4061;51.360;7.340;2023-05-21T07:57:33;8.98;;;6.05;;
8036;SDS011;4061;51.360;7.340;2023-05-21T08:00:02;10.82;;;6.90;;
8036;SDS011;4061;51.360;7.340;2023-05-21T08:02:30;10.35;;;6.28;;
8036;SDS011;4061;51.360;7.340;2023-05-21T08:04:58;9.40;;;6.15;;
8036;SDS011;4061;51.360;7.340;2023-05-21T08:07:25;9.65;;;5.82;;
8036;SDS011;4061;51.360;7.340;2023-05-21T08:09:52;8.27;;;6.35;;
8036;SDS011;4061;51.360;7.340;2023-05-21T08:12:19;9.32;;;6.45;;
8036;SDS011;4061;51.360;7.340;2023-05-21T08:14:47;8.75;;;6.22;;
8036;SDS011;4061;51.360;7.340;2023-05-21T08:17:15;11.48;;;5.95;;
8036;SDS011;4061;51.360;7.340;2023-05-21T08:19:43;7.90;;;5.68;;
8036;SDS011;4061;51.360;7.340;2023-05-21T08:22:10;12.18;;;6.53;;
8036;SDS011;4061;51.360;7.340;2023-05-21T08:24:37;9.70;;;6.07;;
8036;SDS011;4061;51.360;7.340;2023-05-21T08:27:05;14.10;;;6.93;;
8036;SDS011;4061;51.360;7.340;2023-05-21T08:29:32;7.90;;;5.72;;
8036;SDS011;4061;51.360;7.340;2023-05-21T08:32:00;9.73;;;6.28;;
8036;SDS011;4061;51.360;7.340;2023-05-21T08:34:28;11.77;;;6.13;;
8036;SDS011;4061;51.360;7.340;2023-05-21T08:36:55;10.30;;;6.45;;
8036;SDS011;4061;51.360;7.340;2023-05-21T08:39:22;8.82;;;6.53;;
8036;SDS011;4061;51.360;7.340;2023-05-21T08:41:50;8.20;;;6.05;;
8036;SDS011;4061;51.360;7.340;2023-05-21T08:44:20;9.20;;;6.15;;
8036;SDS011;4061;51.360;7.340;2023-05-21T08:46:50;8.18;;;5.88;;
8036;SDS011;4061;51.360;7.340;2023-05-21T08:49:17;7.13;;;6.07;;
8036;SDS011;4061;51.360;7.340;2023-05-21T08:51:49;12.85;;;6.72;;
8036;SDS011;4061;51.360;7.340;2023-05-21T08:54:16;8.45;;;6.10;;
8036;SDS011;4061;51.360;7.340;2023-05-21T08:56:44;14.40;;;7.15;;
8036;SDS011;4061;51.360;7.340;2023-05-21T08:59:14;11.00;;;6.82;;
8036;SDS011;4061;51.360;7.340;2023-05-21T09:01:41;13.27;;;7.00;;
8036;SDS011;4061;51.360;7.340;2023-05-21T09:04:09;9.23;;;6.28;;
8036;SDS011;4061;51.360;7.340;2023-05-21T09:06:39;8.38;;;6.80;;
8036;SDS011;4061;51.360;7.340;2023-05-21T09:09:09;12.45;;;5.70;;
8036;SDS011;4061;51.360;7.340;2023-05-21T09:11:39;11.23;;;7.55;;
8036;SDS011;4061;51.360;7.340;2023-05-21T09:14:07;10.38;;;7.07;;
8036;SDS011;4061;51.360;7.340;2023-05-21T09:16:35;9.15;;;6.45;;
8036;SDS011;4061;51.360;7.340;2023-05-21T09:19:02;10.65;;;7.68;;
8036;SDS011;4061;51.360;7.340;2023-05-21T09:21:30;11.48;;;7.22;;
8036;SDS011;4061;51.360;7.340;2023-05-21T09:23:58;10.23;;;6.72;;
8036;SDS011;4061;51.360;7.340;2023-05-21T09:26:27;11.30;;;6.55;;
8036;SDS011;4061;51.360;7.340;2023-05-21T09:28:56;11.20;;;6.75;;
8036;SDS011;4061;51.360;7.340;2023-05-21T09:31:23;9.45;;;7.10;;
8036;SDS011;4061;51.360;7.340;2023-05-21T09:33:50;12.88;;;7.38;;
8036;SDS011;4061;51.360;7.340;2023-05-21T09:36:19;13.25;;;8.13;;
8036;SDS011;4061;51.360;7.340;2023-05-21T09:38:46;10.30;;;7.30;;
8036;SDS011;4061;51.360;7.340;2023-05-21T09:41:14;9.02;;;6.47;;
8036;SDS011;4061;51.360;7.340;2023-05-21T09:43:42;11.10;;;7.00;;
8036;SDS011;4061;51.360;7.340;2023-05-21T09:46:10;10.75;;;6.45;;
8036;SDS011;4061;51.360;7.340;2023-05-21T09:48:37;10.43;;;6.80;;
8036;SDS011;4061;51.360;7.340;2023-05-21T09:51:08;10.40;;;7.28;;
8036;SDS011;4061;51.360;7.340;2023-05-21T09:53:36;10.85;;;6.93;;
8036;SDS011;4061;51.360;7.340;2023-05-21T09:56:03;10.10;;;6.82;;
8036;SDS011;4061;51.360;7.340;2023-05-21T09:58:30;8.73;;;6.38;;
8036;SDS011;4061;51.360;7.340;2023-05-21T10:00:59;9.98;;;6.40;;
8036;SDS011;4061;51.360;7.340;2023-05-21T10:03:26;10.63;;;6.93;;
8036;SDS011;4061;51.360;7.340;2023-05-21T10:05:54;10.43;;;7.22;;
8036;SDS011;4061;51.360;7.340;2023-05-21T10:08:22;9.48;;;6.63;;
8036;SDS011;4061;51.360;7.340;2023-05-21T10:10:51;9.55;;;7.13;;
8036;SDS011;4061;51.360;7.340;2023-05-21T10:13:18;12.07;;;7.55;;
8036;SDS011;4061;51.360;7.340;2023-05-21T10:15:48;11.75;;;6.95;;
8036;SDS011;4061;51.360;7.340;2023-05-21T10:18:17;13.30;;;7.43;;
8036;SDS011;4061;51.360;7.340;2023-05-21T10:20:45;14.80;;;7.45;;
8036;SDS011;4061;51.360;7.340;2023-05-21T10:23:12;11.38;;;7.38;;
8036;SDS011;4061;51.360;7.340;2023-05-21T10:25:40;10.68;;;7.57;;
8036;SDS011;4061;51.360;7.340;2023-05-21T10:28:07;13.45;;;7.28;;
8036;SDS011;4061;51.360;7.340;2023-05-21T10:30:34;10.18;;;7.53;;
8036;SDS011;4061;51.360;7.340;2023-05-21T10:33:02;9.93;;;7.70;;
8036;SDS011;4061;51.360;7.340;2023-05-21T10:35:31;11.07;;;7.68;;
8036;SDS011;4061;51.360;7.340;2023-05-21T10:38:00;12.15;;;7.63;;
8036;SDS011;4061;51.360;7.340;2023-05-21T10:40:29;9.85;;;7.32;;
8036;SDS011;4061;51.360;7.340;2023-05-21T10:45:52;10.82;;;7.55;;
8036;SDS011;4061;51.360;7.340;2023-05-21T10:48:26;11.95;;;7.45;;
8036;SDS011;4061;51.360;7.340;2023-05-21T10:51:06;15.50;;;7.72;;
8036;SDS011;4061;51.360;7.340;2023-05-21T10:53:40;14.15;;;8.15;;
8036;SDS011;4061;51.360;7.340;2023-05-21T10:56:12;13.68;;;8.02;;
8036;SDS011;4061;51.360;7.340;2023-05-21T10:58:47;10.80;;;7.65;;
8036;SDS011;4061;51.360;7.340;2023-05-21T11:01:17;12.25;;;7.80;;
8036;SDS011;4061;51.360;7.340;2023-05-21T11:03:45;11.93;;;7.65;;
8036;SDS011;4061;51.360;7.340;2023-05-21T11:06:21;14.07;;;7.57;;
8036;SDS011;4061;51.360;7.340;2023-05-21T11:08:49;11.52;;;7.25;;
8036;SDS011;4061;51.360;7.340;2023-05-21T11:14:02;14.48;;;7.95;;
8036;SDS011;4061;51.360;7.340;2023-05-21T11:16:49;13.30;;;8.27;;
8036;SDS011;4061;51.360;7.340;2023-05-21T11:19:16;13.55;;;9.02;;
8036;SDS011;4061;51.360;7.340;2023-05-21T11:21:48;15.27;;;8.80;;
8036;SDS011;4061;51.360;7.340;2023-05-21T11:24:17;13.73;;;8.45;;
8036;SDS011;4061;51.360;7.340;2023-05-21T11:27:00;11.35;;;8.43;;
8036;SDS011;4061;51.360;7.340;2023-05-21T11:29:38;16.77;;;8.77;;
8036;SDS011;4061;51.360;7.340;2023-05-21T11:32:06;12.15;;;7.50;;
8036;SDS011;4061;51.360;7.340;2023-05-21T11:34:37;11.20;;;7.75;;
8036;SDS011;4061;51.360;7.340;2023-05-21T11:37:22;15.25;;;9.38;;
8036;SDS011;4061;51.360;7.340;2023-05-21T11:39:51;11.07;;;8.35;;
8036;SDS011;4061;51.360;7.340;2023-05-21T11:42:29;16.33;;;8.10;;
8036;SDS011;4061;51.360;7.340;2023-05-21T11:44:56;12.50;;;8.43;;
8036;SDS011;4061;51.360;7.340;2023-05-21T11:47:24;13.68;;;9.05;;
8036;SDS011;4061;51.360;7.340;2023-05-21T11:49:51;14.43;;;9.13;;
8036;SDS011;4061;51.360;7.340;2023-05-21T11:52:18;11.48;;;8.23;;
8036;SDS011;4061;51.360;7.340;2023-05-21T11:54:47;11.77;;;8.43;;
8036;SDS011;4061;51.360;7.340;2023-05-21T11:57:17;14.45;;;8.70;;
8036;SDS011;4061;51.360;7.340;2023-05-21T11:59:44;11.90;;;8.25;;
8036;SDS011;4061;51.360;7.340;2023-05-21T12:02:13;14.38;;;8.90;;
8036;SDS011;4061;51.360;7.340;2023-05-21T12:04:41;17.10;;;8.82;;
8036;SDS011;4061;51.360;7.340;2023-05-21T12:07:09;13.15;;;9.32;;
8036;SDS011;4061;51.360;7.340;2023-05-21T12:09:37;13.25;;;9.07;;
8036;SDS011;4061;51.360;7.340;2023-05-21T12:12:06;17.20;;;9.70;;
8036;SDS011;4061;51.360;7.340;2023-05-21T12:14:34;16.05;;;9.60;;
8036;SDS011;4061;51.360;7.340;2023-05-21T12:17:02;16.65;;;9.32;;
8036;SDS011;4061;51.360;7.340;2023-05-21T12:19:31;12.52;;;8.77;;
8036;SDS011;4061;51.360;7.340;2023-05-21T12:21:59;15.10;;;8.75;;
8036;SDS011;4061;51.360;7.340;2023-05-21T12:24:27;14.80;;;9.93;;
8036;SDS011;4061;51.360;7.340;2023-05-21T12:26:55;15.93;;;8.93;;
8036;SDS011;4061;51.360;7.340;2023-05-21T12:29:25;12.63;;;8.48;;
8036;SDS011;4061;51.360;7.340;2023-05-21T12:31:52;15.52;;;9.10;;
8036;SDS011;4061;51.360;7.340;2023-05-21T12:34:41;19.92;;;8.07;;
8036;SDS011;4061;51.360;7.340;2023-05-21T12:37:10;14.45;;;8.82;;
8036;SDS011;4061;51.360;7.340;2023-05-21T12:39:38;15.27;;;8.95;;
8036;SDS011;4061;51.360;7.340;2023-05-21T12:42:05;14.88;;;9.43;;
8036;SDS011;4061;51.360;7.340;2023-05-21T12:44:34;12.85;;;7.95;;
8036;SDS011;4061;51.360;7.340;2023-05-21T12:47:01;14.10;;;7.97;;
8036;SDS011;4061;51.360;7.340;2023-05-21T12:49:29;15.27;;;9.35;;
8036;SDS011;4061;51.360;7.340;2023-05-21T12:51:56;14.52;;;8.80;;
8036;SDS011;4061;51.360;7.340;2023-05-21T12:54:27;16.60;;;8.80;;
8036;SDS011;4061;51.360;7.340;2023-05-21T12:56:54;14.50;;;9.05;;
8036;SDS011;4061;51.360;7.340;2023-05-21T12:59:21;13.98;;;9.38;;
8036;SDS011;4061;51.360;7.340;2023-05-21T13:01:50;14.18;;;9.15;;
8036;SDS011;4061;51.360;7.340;2023-05-21T13:04:18;17.50;;;8.80;;
8036;SDS011;4061;51.360;7.340;2023-05-21T13:06:46;11.05;;;8.48;;
8036;SDS011;4061;51.360;7.340;2023-05-21T13:09:13;13.55;;;9.02;;
8036;SDS011;4061;51.360;7.340;2023-05-21T13:11:40;11.70;;;8.88;;
8036;SDS011;4061;51.360;7.340;2023-05-21T13:14:07;13.75;;;8.80;;
8036;SDS011;4061;51.360;7.340;2023-05-21T13:16:34;12.00;;;8.60;;
8036;SDS011;4061;51.360;7.340;2023-05-21T13:19:03;14.88;;;9.00;;
8036;SDS011;4061;51.360;7.340;2023-05-21T13:21:30;15.23;;;8.45;;
8036;SDS011;4061;51.360;7.340;2023-05-21T13:23:57;18.40;;;10.00;;
8036;SDS011;4061;51.360;7.340;2023-05-21T13:26:24;13.77;;;8.88;;
8036;SDS011;4061;51.360;7.340;2023-05-21T13:28:51;13.23;;;9.05;;
8036;SDS011;4061;51.360;7.340;2023-05-21T13:31:18;19.77;;;8.82;;
8036;SDS011;4061;51.360;7.340;2023-05-21T13:33:47;12.30;;;8.20;;
8036;SDS011;4061;51.360;7.340;2023-05-21T13:36:15;11.90;;;8.63;;
8036;SDS011;4061;51.360;7.340;2023-05-21T13:38:42;10.55;;;7.60;;
8036;SDS011;4061;51.360;7.340;2023-05-21T13:41:17;14.13;;;9.00;;
8036;SDS011;4061;51.360;7.340;2023-05-21T13:43:45;12.40;;;8.57;;
8036;SDS011;4061;51.360;7.340;2023-05-21T13:46:12;12.02;;;8.48;;
8036;SDS011;4061;51.360;7.340;2023-05-21T13:48:39;18.20;;;8.73;;
8036;SDS011;4061;51.360;7.340;2023-05-21T13:51:07;12.07;;;8.18;;
8036;SDS011;4061;51.360;7.340;2023-05-21T13:53:36;12.38;;;8.43;;
8036;SDS011;4061;51.360;7.340;2023-05-21T13:56:03;12.07;;;8.05;;
8036;SDS011;4061;51.360;7.340;2023-05-21T13:58:31;10.98;;;7.78;;
8036;SDS011;4061;51.360;7.340;2023-05-21T14:01:10;11.93;;;8.10;;
8036;SDS011;4061;51.360;7.340;2023-05-21T14:03:37;11.90;;;7.80;;
8036;SDS011;4061;51.360;7.340;2023-05-21T14:06:04;14.43;;;8.45;;
8036;SDS011;4061;51.360;7.340;2023-05-21T14:08:32;13.02;;;7.63;;
8036;SDS011;4061;51.360;7.340;2023-05-21T14:11:00;12.98;;;8.02;;
8036;SDS011;4061;51.360;7.340;2023-05-21T14:13:28;14.32;;;8.38;;
8036;SDS011;4061;51.360;7.340;2023-05-21T14:15:55;11.18;;;7.43;;
8036;SDS011;4061;51.360;7.340;2023-05-21T14:18:22;13.07;;;8.95;;
8036;SDS011;4061;51.360;7.340;2023-05-21T14:20:49;10.88;;;7.70;;
8036;SDS011;4061;51.360;7.340;2023-05-21T14:23:16;11.90;;;8.18;;
8036;SDS011;4061;51.360;7.340;2023-05-21T14:25:43;13.75;;;8.30;;
8036;SDS011;4061;51.360;7.340;2023-05-21T14:28:12;13.80;;;8.63;;
8036;SDS011;4061;51.360;7.340;2023-05-21T14:30:39;12.18;;;8.18;;
8036;SDS011;4061;51.360;7.340;2023-05-21T14:33:06;12.43;;;8.45;;
8036;SDS011;4061;51.360;7.340;2023-05-21T14:35:33;17.33;;;7.72;;
8036;SDS011;4061;51.360;7.340;2023-05-21T14:38:01;11.75;;;7.97;;
8036;SDS011;4061;51.360;7.340;2023-05-21T14:40:28;11.95;;;8.27;;
8036;SDS011;4061;51.360;7.340;2023-05-21T14:42:55;15.00;;;8.57;;
8036;SDS011;4061;51.360;7.340;2023-05-21T14:45:23;10.68;;;7.93;;
8036;SDS011;4061;51.360;7.340;2023-05-21T14:47:50;12.43;;;7.55;;
8036;SDS011;4061;51.360;7.340;2023-05-21T14:50:18;13.95;;;8.13;;
8036;SDS011;4061;51.360;7.340;2023-05-21T14:52:46;12.90;;;8.73;;
8036;SDS011;4061;51.360;7.340;2023-05-21T14:55:13;13.68;;;8.68;;
8036;SDS011;4061;51.360;7.340;2023-05-21T14:57:42;13.90;;;7.97;;
8036;SDS011;4061;51.360;7.340;2023-05-21T15:00:10;12.63;;;7.70;;
8036;SDS011;4061;51.360;7.340;2023-05-21T15:02:39;10.55;;;7.63;;
8036;SDS011;4061;51.360;7.340;2023-05-21T15:05:06;12.43;;;7.50;;
8036;SDS011;4061;51.360;7.340;2023-05-21T15:07:33;10.73;;;8.48;;
8036;SDS011;4061;51.360;7.340;2023-05-21T15:10:00;10.45;;;7.68;;
8036;SDS011;4061;51.360;7.340;2023-05-21T15:12:28;14.90;;;7.35;;
8036;SDS011;4061;51.360;7.340;2023-05-21T15:14:55;9.80;;;7.53;;
8036;SDS011;4061;51.360;7.340;2023-05-21T15:17:22;11.50;;;6.75;;